Time;durP1;ratioP1;P1;durP2;ratioP2;P2;SDS_P1;SDS_P2;PMS_P1;PMS_P2;Temp;Humidity;BMP_temperature;BMP_pressure;BME280_temperature;BME280_humidity;BME280_pressure;Samples;Min_cycle;Max_cycle;Signal;HPM_P1;HPM_P2
2021/07/18 00:01:23;;;;;;;;;;;;;;;18.22;100.00;100896.59;4957443;28;19961;-68
2021/07/18 00:04:08;;;;;;;;;;;;;;;18.21;100.00;100886.81;4956859;29;19921;-68
2021/07/18 00:06:51;;;;;;;;;;;;;;;18.22;100.00;100891.19;4956949;29;19966;-68
2021/07/18 00:09:35;;;;;;;;;;;;;;;18.22;100.00;100901.97;4943290;29;19925;-68
2021/07/18 00:12:19;;;;;;;;;;;;;;;18.24;100.00;100894.53;4956783;29;20335;-68
2021/07/18 00:15:04;;;;;;;;;;;;;;;18.29;100.00;100897.59;4956985;29;20026;-68
2021/07/18 00:17:48;;;;;;;;;;;;;;;18.33;100.00;100901.59;4956924;29;19965;-68
2021/07/18 00:20:32;;;;;;;;;;;;;;;18.37;100.00;100896.69;4956656;29;20017;-68
2021/07/18 00:23:17;;;;;;;;;;;;;;;18.38;100.00;100899.22;4956649;29;19942;-68
2021/07/18 00:26:01;;;;;;;;;;;;;;;18.41;100.00;100893.47;4957113;29;19921;-68
2021/07/18 00:28:44;;;;;;;;;;;;;;;18.39;100.00;100900.91;4956825;29;20466;-68
2021/07/18 00:31:28;;;;;;;;;;;;;;;18.37;100.00;100894.84;4942737;29;19961;-68
2021/07/18 00:34:12;;;;;;;;;;;;;;;18.35;100.00;100891.50;4942795;29;20009;-68
2021/07/18 00:36:56;;;;;;;;;;;;;;;18.34;100.00;100894.34;4942728;29;19998;-68
2021/07/18 00:39:40;;;;;;;;;;;;;;;18.33;100.00;100895.38;4942787;29;19921;-68
2021/07/18 00:42:24;;;;;;;;;;;;;;;18.30;100.00;100899.25;4956013;29;19969;-68
2021/07/18 00:45:08;;;;;;;;;;;;;;;18.24;100.00;100899.94;4956396;29;19952;-68
2021/07/18 00:47:52;;;;;;;;;;;;;;;18.17;100.00;100888.19;4956210;29;19925;-68
2021/07/18 00:50:43;;;;;;;;;;;;;;;18.10;100.00;100898.00;4957545;29;19968;-69
2021/07/18 00:53:27;;;;;;;;;;;;;;;18.02;100.00;100892.66;4956037;29;19968;-68
2021/07/18 00:56:11;;;;;;;;;;;;;;;17.97;100.00;100897.75;4957197;29;19976;-68
2021/07/18 00:58:55;;;;;;;;;;;;;;;17.94;100.00;100897.25;4957325;29;19964;-68
2021/07/18 01:01:40;;;;;;;;;;;;;;;17.92;100.00;100899.28;4956021;29;19921;-68
2021/07/18 01:04:24;;;;;;;;;;;;;;;17.91;100.00;100903.84;4956229;29;20276;-68
2021/07/18 01:07:08;;;;;;;;;;;;;;;17.91;100.00;100908.41;4942288;29;19926;-66
2021/07/18 01:09:52;;;;;;;;;;;;;;;17.94;100.00;100902.66;4942509;29;20348;-68
2021/07/18 01:12:36;;;;;;;;;;;;;;;17.94;100.00;100898.09;4941889;29;19937;-68
2021/07/18 01:15:20;;;;;;;;;;;;;;;17.99;100.00;100897.53;4957522;29;20414;-69
2021/07/18 01:18:04;;;;;;;;;;;;;;;18.02;100.00;100895.34;4955788;29;19921;-68
2021/07/18 01:20:48;;;;;;;;;;;;;;;18.03;100.00;100891.63;4955705;28;19921;-68
2021/07/18 01:23:33;;;;;;;;;;;;;;;18.05;100.00;100888.75;4955650;29;19921;-69
2021/07/18 01:26:17;;;;;;;;;;;;;;;18.07;100.00;100887.56;4955598;29;19923;-68
2021/07/18 01:29:01;;;;;;;;;;;;;;;18.08;100.00;100893.78;4955583;29;19941;-68
2021/07/18 01:31:45;;;;;;;;;;;;;;;18.03;100.00;100891.63;4956567;28;19925;-69
2021/07/18 01:34:29;;;;;;;;;;;;;;;18.03;100.00;100890.81;4941949;29;19962;-68
2021/07/18 01:37:13;;;;;;;;;;;;;;;18.02;100.00;100887.25;4955461;29;20025;-68
2021/07/18 01:39:57;;;;;;;;;;;;;;;18.02;100.00;100887.25;4941887;29;19921;-68
2021/07/18 01:42:42;;;;;;;;;;;;;;;18.01;100.00;100885.56;5033306;23;19929;-68
2021/07/18 01:45:32;;;;;;;;;;;;;;;17.98;100.00;100885.06;4975142;28;19935;-68
2021/07/18 01:48:18;;;;;;;;;;;;;;;17.94;100.00;100887.31;4974553;28;19960;-68
2021/07/18 01:51:06;;;;;;;;;;;;;;;17.92;100.00;100894.72;4987539;28;19922;-68
2021/07/18 01:53:52;;;;;;;;;;;;;;;17.93;100.00;100882.09;4956173;28;20290;-68
2021/07/18 01:56:38;;;;;;;;;;;;;;;17.92;100.00;100886.63;4969668;28;19933;-68
2021/07/18 01:59:25;;;;;;;;;;;;;;;17.92;100.00;100891.19;4955793;28;19965;-68
2021/07/18 02:02:10;;;;;;;;;;;;;;;17.92;100.00;100889.31;4956046;28;20006;-68
2021/07/18 02:04:56;;;;;;;;;;;;;;;17.87;100.00;100886.34;4955874;28;20338;-68
2021/07/18 02:07:43;;;;;;;;;;;;;;;17.81;100.00;100886.19;4956005;28;19924;-68
2021/07/18 02:10:30;;;;;;;;;;;;;;;17.81;100.00;100886.19;4955194;28;19968;-68
2021/07/18 02:13:16;;;;;;;;;;;;;;;17.81;100.00;100892.41;4954045;28;19936;-68
2021/07/18 02:16:04;;;;;;;;;;;;;;;17.82;100.00;100882.47;4954895;28;19945;-68
2021/07/18 02:18:53;;;;;;;;;;;;;;;17.87;100.00;100880.94;4955379;28;19960;-68
2021/07/18 02:21:42;;;;;;;;;;;;;;;17.92;100.00;100873.13;4955708;28;19933;-66
2021/07/18 02:24:28;;;;;;;;;;;;;;;17.99;100.00;100879.53;4955619;28;19973;-68
2021/07/18 02:27:14;;;;;;;;;;;;;;;17.98;100.00;100877.00;4955216;28;20374;-68
2021/07/18 02:30:00;;;;;;;;;;;;;;;17.97;100.00;100878.88;4955596;28;20011;-68
2021/07/18 02:32:46;;;;;;;;;;;;;;;17.96;100.00;100877.19;4980624;28;19921;-68
2021/07/18 02:35:32;;;;;;;;;;;;;;;17.97;100.00;100878.88;4955255;28;19936;-68
2021/07/18 02:38:19;;;;;;;;;;;;;;;17.96;100.00;100879.88;4955501;28;20215;-68
2021/07/18 02:41:06;;;;;;;;;;;;;;;17.94;100.00;100873.84;4968919;28;19960;-68
2021/07/18 02:43:53;;;;;;;;;;;;;;;17.94;100.00;100881.91;4955521;28;19921;-69
2021/07/18 02:46:37;;;;;;;;;;;;;;;17.94;100.00;100879.22;4974484;23;20473;-67
2021/07/18 02:49:21;;;;;;;;;;;;;;;17.89;100.00;100889.69;4998771;28;19924;-67
2021/07/18 02:52:06;;;;;;;;;;;;;;;17.89;100.00;100883.47;4998598;28;19920;-66
2021/07/18 02:54:50;;;;;;;;;;;;;;;17.83;100.00;100884.16;4998810;28;19920;-67
2021/07/18 02:57:34;;;;;;;;;;;;;;;17.77;100.00;100885.69;4998732;28;19963;-67
2021/07/18 03:00:20;;;;;;;;;;;;;;;17.75;100.00;100879.66;4985077;28;19980;-67
2021/07/18 03:03:05;;;;;;;;;;;;;;;17.69;100.00;100880.34;5001095;28;19920;-67
2021/07/18 03:05:49;;;;;;;;;;;;;;;17.67;100.00;100885.06;4999055;28;19967;-67
2021/07/18 03:08:32;;;;;;;;;;;;;;;17.62;100.00;100881.22;5013358;28;19924;-67
2021/07/18 03:11:16;;;;;;;;;;;;;;;17.57;100.00;100892.53;5013324;28;19924;-68
2021/07/18 03:14:00;;;;;;;;;;;;;;;17.47;100.00;100891.88;4998788;28;19959;-67
2021/07/18 03:16:44;;;;;;;;;;;;;;;17.44;100.00;100892.25;5013615;28;19928;-67
2021/07/18 03:19:28;;;;;;;;;;;;;;;17.40;100.00;100896.28;4984996;28;19967;-67
2021/07/18 03:22:12;;;;;;;;;;;;;;;17.42;100.00;100896.94;4984639;28;19921;-65
2021/07/18 03:24:56;;;;;;;;;;;;;;;17.40;100.00;100888.19;5013554;28;19940;-67
2021/07/18 03:27:40;;;;;;;;;;;;;;;17.35;100.00;100893.28;5013147;28;19940;-68
2021/07/18 03:30:24;;;;;;;;;;;;;;;17.29;100.00;100891.22;4998441;28;19920;-67
2021/07/18 03:33:08;;;;;;;;;;;;;;;17.27;100.00;100882.47;4984891;28;20012;-67
2021/07/18 03:35:52;;;;;;;;;;;;;;;17.24;100.00;100881.97;5016455;28;20393;-67
2021/07/18 03:38:36;;;;;;;;;;;;;;;17.22;100.00;100889.38;4988054;28;19940;-67
2021/07/18 03:41:20;;;;;;;;;;;;;;;17.24;100.00;100888.22;5001971;28;19919;-67
2021/07/18 03:44:04;;;;;;;;;;;;;;;17.30;100.00;100881.28;4988109;28;19919;-67
2021/07/18 03:46:48;;;;;;;;;;;;;;;17.28;100.00;100889.53;5001475;28;19975;-66
2021/07/18 03:49:32;;;;;;;;;;;;;;;17.24;100.00;100882.81;4987869;28;19978;-67
2021/07/18 03:52:16;;;;;;;;;;;;;;;17.20;100.00;100886.84;5001517;28;19968;-67
2021/07/18 03:55:00;;;;;;;;;;;;;;;17.15;100.00;100883.84;5001518;28;20385;-67
2021/07/18 03:57:44;;;;;;;;;;;;;;;17.10;100.00;100890.75;5001450;28;20390;-67
2021/07/18 04:00:27;;;;;;;;;;;;;;;17.09;100.00;100889.91;5001428;28;19920;-67
2021/07/18 04:03:11;;;;;;;;;;;;;;;17.04;100.00;100896.81;5001615;28;19920;-68
2021/07/18 04:05:55;;;;;;;;;;;;;;;17.03;100.00;100893.31;5016164;28;20465;-67
2021/07/18 04:08:39;;;;;;;;;;;;;;;17.02;100.00;100902.41;5001156;28;19924;-67
2021/07/18 04:11:23;;;;;;;;;;;;;;;17.02;100.00;100904.25;4988005;28;19920;-68
2021/07/18 04:14:07;;;;;;;;;;;;;;;17.04;100.00;100902.22;5001429;28;19972;-67
2021/07/18 04:16:51;;;;;;;;;;;;;;;17.01;100.00;100903.38;5001215;28;19920;-67
2021/07/18 04:19:35;;;;;;;;;;;;;;;17.04;100.00;100911.16;5001329;28;20370;-68
2021/07/18 04:22:18;;;;;;;;;;;;;;;17.04;100.00;100915.69;5001227;28;20386;-67
2021/07/18 04:25:03;;;;;;;;;;;;;;;17.02;100.00;100910.47;5001162;28;19920;-67
2021/07/18 04:27:47;;;;;;;;;;;;;;;17.06;100.00;100911.81;5015648;28;19972;-68
2021/07/18 04:30:31;;;;;;;;;;;;;;;17.07;100.00;100913.50;5001125;28;19920;-67
2021/07/18 04:33:15;;;;;;;;;;;;;;;17.08;100.00;100915.16;4987560;28;20283;-68
2021/07/18 04:35:59;;;;;;;;;;;;;;;17.08;100.00;100912.47;5001018;28;20318;-68
2021/07/18 04:38:42;;;;;;;;;;;;;;;17.10;100.00;100912.31;5015863;28;19921;-67
2021/07/18 04:41:27;;;;;;;;;;;;;;;17.15;100.00;100913.50;5015946;28;20290;-68
2021/07/18 04:44:11;;;;;;;;;;;;;;;17.18;100.00;100912.31;5015744;28;19920;-67
2021/07/18 04:46:56;;;;;;;;;;;;;;;17.20;100.00;100913.81;4999490;28;19924;-67
2021/07/18 04:49:40;;;;;;;;;;;;;;;17.25;100.00;100922.22;4986791;28;20290;-68
2021/07/18 04:52:24;;;;;;;;;;;;;;;17.27;100.00;100925.59;5015541;28;19919;-68
2021/07/18 04:55:08;;;;;;;;;;;;;;;17.33;100.00;100929.44;5015193;28;20321;-66
2021/07/18 04:57:52;;;;;;;;;;;;;;;17.34;100.00;100931.13;4986988;28;19976;-68
2021/07/18 05:00:36;;;;;;;;;;;;;;;17.42;100.00;100934.66;4986872;28;19959;-67
2021/07/18 05:03:20;;;;;;;;;;;;;;;17.46;100.00;100938.72;5000486;28;19935;-67
2021/07/18 05:06:05;;;;;;;;;;;;;;;17.52;100.00;100935.31;5000714;28;19920;-68
2021/07/18 05:08:49;;;;;;;;;;;;;;;17.55;100.00;100935.00;5000485;28;19924;-67
2021/07/18 05:11:33;;;;;;;;;;;;;;;17.60;100.00;100937.19;5000250;28;19920;-68
2021/07/18 05:14:17;;;;;;;;;;;;;;;17.65;100.00;100948.28;5000368;28;19964;-68
2021/07/18 05:17:01;;;;;;;;;;;;;;;17.71;100.00;100940.31;4999950;28;19920;-68
2021/07/18 05:19:45;;;;;;;;;;;;;;;17.79;100.00;100945.69;5000178;28;20382;-67
2021/07/18 05:22:29;;;;;;;;;;;;;;;17.86;100.00;100943.13;5014751;28;19920;-68
2021/07/18 05:25:13;;;;;;;;;;;;;;;17.93;100.00;100936.88;5015068;28;20281;-67
2021/07/18 05:27:57;;;;;;;;;;;;;;;17.96;100.00;100943.78;5014647;28;19932;-66
2021/07/18 05:30:41;;;;;;;;;;;;;;;18.00;100.00;100954.03;5014631;28;19960;-67
2021/07/18 05:33:25;;;;;;;;;;;;;;;18.04;100.00;100952.69;4999609;28;19967;-68
2021/07/18 05:36:10;;;;;;;;;;;;;;;18.12;100.00;100947.22;4999608;28;20401;-68
2021/07/18 05:38:54;;;;;;;;;;;;;;;18.18;99.98;100957.34;4999999;28;19920;-68
2021/07/18 05:41:38;;;;;;;;;;;;;;;18.25;100.00;100952.94;5014418;28;19920;-67
2021/07/18 05:44:21;;;;;;;;;;;;;;;18.32;100.00;100956.59;5014357;28;19920;-67
2021/07/18 05:47:05;;;;;;;;;;;;;;;18.37;100.00;100959.63;5014317;28;19928;-68
2021/07/18 05:49:49;;;;;;;;;;;;;;;18.43;100.00;100959.75;4999495;28;19936;-67
2021/07/18 05:52:33;;;;;;;;;;;;;;;18.47;99.73;100955.66;5014338;28;19921;-67
2021/07/18 05:55:17;;;;;;;;;;;;;;;18.57;97.80;100955.47;4999714;28;19924;-67
2021/07/18 05:58:01;;;;;;;;;;;;;;;18.62;98.72;100958.44;5014156;28;19975;-67
2021/07/18 06:00:44;;;;;;;;;;;;;;;18.68;98.34;100958.56;4999574;28;19920;-67
2021/07/18 06:03:28;;;;;;;;;;;;;;;18.72;96.88;100968.00;4985424;28;19936;-67
2021/07/18 06:06:12;;;;;;;;;;;;;;;18.82;95.13;100967.75;4999612;28;19940;-66
2021/07/18 06:08:56;;;;;;;;;;;;;;;18.89;93.99;100966.03;5014320;28;19993;-67
2021/07/18 06:11:40;;;;;;;;;;;;;;;18.99;94.17;100959.34;4999324;28;19920;-67
2021/07/18 06:14:24;;;;;;;;;;;;;;;18.99;93.83;100955.81;4999222;28;19979;-67
2021/07/18 06:17:08;;;;;;;;;;;;;;;19.09;93.99;100959.94;4999360;28;19920;-68
2021/07/18 06:19:53;;;;;;;;;;;;;;;19.17;94.88;100956.34;4985599;28;19921;-67
2021/07/18 06:22:37;;;;;;;;;;;;;;;19.22;94.12;100956.66;4985210;28;19940;-67
2021/07/18 06:25:20;;;;;;;;;;;;;;;19.32;91.34;100958.09;4999201;28;19998;-67
2021/07/18 06:28:04;;;;;;;;;;;;;;;19.41;91.56;100954.25;5013787;28;19925;-67
2021/07/18 06:30:50;;;;;;;;;;;;;;;19.48;90.52;100952.50;4999170;28;20410;-67
2021/07/18 06:33:34;;;;;;;;;;;;;;;19.55;90.47;100947.19;4999149;28;19964;-67
2021/07/18 06:36:18;;;;;;;;;;;;;;;19.60;91.17;100952.88;4999122;28;20282;-67
2021/07/18 06:39:02;;;;;;;;;;;;;;;19.64;88.26;100946.06;4999043;28;20333;-67
2021/07/18 06:41:46;;;;;;;;;;;;;;;19.78;88.54;100958.78;4999142;28;19963;-67
2021/07/18 06:44:30;;;;;;;;;;;;;;;19.81;85.56;100959.22;4999052;28;19921;-67
2021/07/18 06:47:14;;;;;;;;;;;;;;;19.86;84.66;100955.97;4998632;28;20409;-66
2021/07/18 06:49:58;;;;;;;;;;;;;;;19.94;84.11;100954.00;4985495;28;20377;-67
2021/07/18 06:52:41;;;;;;;;;;;;;;;20.01;84.47;100959.50;4985453;28;19963;-67
2021/07/18 06:55:25;;;;;;;;;;;;;;;20.05;83.30;100958.97;4998666;28;19939;-67
2021/07/18 06:58:09;;;;;;;;;;;;;;;20.09;83.25;100962.16;4999183;28;19920;-65
2021/07/18 07:00:53;;;;;;;;;;;;;;;20.14;83.19;100962.41;4998856;28;19967;-66
2021/07/18 07:03:37;;;;;;;;;;;;;;;20.26;83.79;100971.72;4984919;28;20373;-66
2021/07/18 07:06:21;;;;;;;;;;;;;;;20.33;82.26;100961.81;4998856;28;19920;-67
2021/07/18 07:09:05;;;;;;;;;;;;;;;20.37;82.10;100972.09;4986102;28;20282;-66
2021/07/18 07:11:49;;;;;;;;;;;;;;;20.46;82.84;100976.38;5017308;28;19963;-66
2021/07/18 07:14:33;;;;;;;;;;;;;;;20.57;83.93;100978.56;5017488;28;19920;-65
2021/07/18 07:17:17;;;;;;;;;;;;;;;20.65;80.95;100961.34;5002491;28;19971;-66
2021/07/18 07:20:03;;;;;;;;;;;;;;;20.79;81.63;100971.28;5017099;28;19943;-66
2021/07/18 07:22:47;;;;;;;;;;;;;;;20.85;80.43;100974.13;5002387;28;19932;-65
2021/07/18 07:25:31;;;;;;;;;;;;;;;20.92;78.29;100968.75;5002317;28;19920;-66
2021/07/18 07:28:14;;;;;;;;;;;;;;;20.98;77.63;100970.69;5002255;28;19924;-66
2021/07/18 07:30:59;;;;;;;;;;;;;;;21.10;77.73;100969.97;5002052;28;19921;-66
2021/07/18 07:33:47;;;;;;;;;;;;;;;21.18;78.43;100973.38;5016835;28;20003;-67
2021/07/18 07:36:33;;;;;;;;;;;;;;;21.27;76.56;100972.22;5002609;28;19939;-67
2021/07/18 07:39:17;;;;;;;;;;;;;;;21.34;76.54;100973.09;5017324;28;19944;-66
2021/07/18 07:42:01;;;;;;;;;;;;;;;21.38;74.64;100968.94;5001912;28;19960;-67
2021/07/18 07:44:45;;;;;;;;;;;;;;;21.43;73.60;100966.50;5001994;28;19936;-67
2021/07/18 07:47:29;;;;;;;;;;;;;;;21.51;73.97;100969.03;5016488;28;20393;-67
2021/07/18 07:50:14;;;;;;;;;;;;;;;21.53;73.92;100967.00;5016493;28;19928;-66
2021/07/18 07:52:58;;;;;;;;;;;;;;;21.64;73.89;100968.34;5001628;28;20016;-66
2021/07/18 07:55:42;;;;;;;;;;;;;;;21.70;72.08;100973.81;5001632;28;20012;-66
2021/07/18 07:58:26;;;;;;;;;;;;;;;21.77;73.92;100973.84;5016672;28;19920;-67
2021/07/18 08:01:10;;;;;;;;;;;;;;;21.81;74.28;100981.38;4987906;28;19920;-66
2021/07/18 08:03:54;;;;;;;;;;;;;;;21.87;70.34;100969.75;4987590;28;20295;-66
2021/07/18 08:06:38;;;;;;;;;;;;;;;21.93;70.30;100968.09;5001204;28;20346;-66
2021/07/18 08:09:32;;;;;;;;;;;;;;;21.97;70.65;100964.78;4987824;28;19993;-66
2021/07/18 08:12:16;;;;;;;;;;;;;;;22.03;69.98;100960.44;4988413;28;20407;-68
2021/07/18 08:15:01;;;;;;;;;;;;;;;22.06;68.07;100963.59;4987326;28;19920;-66
2021/07/18 08:17:54;;;;;;;;;;;;;;;21.99;67.99;100954.56;4987533;28;19920;-67
2021/07/18 08:20:39;;;;;;;;;;;;;;;22.09;69.77;100949.59;4988427;28;19921;-66
2021/07/18 08:23:25;;;;;;;;;;;;;;;22.20;70.74;100953.63;4986974;28;19925;-65
2021/07/18 08:26:22;;;;;;;;;;;;;;;22.30;69.05;100954.91;4987354;28;19920;-66
2021/07/18 08:29:26;;;;;;;;;;;;;;;22.38;69.49;100954.75;4988232;28;19928;-67
2021/07/18 08:32:11;;;;;;;;;;;;;;;22.46;69.57;100951.88;4989390;28;19920;-67
2021/07/18 08:34:59;;;;;;;;;;;;;;;22.54;69.21;100957.13;4987192;28;19944;-68
2021/07/18 08:37:47;;;;;;;;;;;;;;;22.58;68.01;100952.94;4987148;28;20270;-69
2021/07/18 08:40:39;;;;;;;;;;;;;;;22.75;69.37;100953.41;4987253;28;20397;-68
2021/07/18 08:43:24;;;;;;;;;;;;;;;22.86;69.09;100955.50;4986904;28;19983;-68
2021/07/18 08:46:12;;;;;;;;;;;;;;;22.95;66.29;100951.56;5014918;28;19923;-69
2021/07/18 08:49:03;;;;;;;;;;;;;;;22.97;68.00;100961.19;5000529;28;20047;-69
2021/07/18 08:51:50;;;;;;;;;;;;;;;23.12;67.96;100953.66;4987259;28;20370;-70
2021/07/18 08:54:37;;;;;;;;;;;;;;;23.23;67.10;100957.69;4986655;28;19986;-68
2021/07/18 08:57:26;;;;;;;;;;;;;;;23.32;66.17;100951.81;4986498;28;19920;-69
2021/07/18 09:00:11;;;;;;;;;;;;;;;23.41;68.53;100953.28;5000170;28;19920;-68
2021/07/18 09:03:00;;;;;;;;;;;;;;;23.50;65.21;100951.16;4986567;28;19977;-68
2021/07/18 09:05:47;;;;;;;;;;;;;;;23.63;65.91;100949.25;5000675;28;19921;-69
2021/07/18 09:08:49;;;;;;;;;;;;;;;23.76;64.86;100943.78;4986695;28;19925;-69
2021/07/18 09:11:37;;;;;;;;;;;;;;;23.83;63.63;100941.06;4985989;28;19959;-69
2021/07/18 09:14:23;;;;;;;;;;;;;;;23.86;64.47;100944.22;4986835;28;19921;-68
2021/07/18 09:17:18;;;;;;;;;;;;;;;24.04;63.98;100946.28;4986374;28;19925;-69
2021/07/18 09:20:11;;;;;;;;;;;;;;;24.18;63.45;100946.81;4986973;28;20326;-68
2021/07/18 09:23:08;;;;;;;;;;;;;;;24.35;62.16;100939.00;4999723;28;19921;-68
2021/07/18 09:25:52;;;;;;;;;;;;;;;24.53;61.83;100934.56;4985637;28;19936;-65
2021/07/18 09:28:36;;;;;;;;;;;;;;;24.63;60.66;100934.91;4985762;28;19935;-65
2021/07/18 09:31:27;;;;;;;;;;;;;;;24.77;61.92;100928.31;4985421;28;19920;-66
2021/07/18 09:34:12;;;;;;;;;;;;;;;24.91;59.26;100920.88;4985554;28;19920;-65
2021/07/18 09:37:02;;;;;;;;;;;;;;;25.04;61.06;100929.78;4985710;28;19920;-66
2021/07/18 09:39:47;;;;;;;;;;;;;;;25.30;60.21;100924.13;4985568;28;19924;-66
2021/07/18 09:42:32;;;;;;;;;;;;;;;25.45;57.74;100923.78;4985099;28;20385;-66
2021/07/18 09:45:17;;;;;;;;;;;;;;;25.66;57.68;100923.38;4999341;28;19959;-66
2021/07/18 09:48:02;;;;;;;;;;;;;;;25.87;58.11;100933.88;4985142;28;20318;-66
2021/07/18 09:50:46;;;;;;;;;;;;;;;26.13;55.15;100920.72;4985066;28;20262;-65
2021/07/18 09:53:30;;;;;;;;;;;;;;;26.21;57.11;100912.22;4984903;28;19971;-66
2021/07/18 09:56:17;;;;;;;;;;;;;;;26.40;55.30;100926.69;4985149;28;19950;-66
2021/07/18 09:59:01;;;;;;;;;;;;;;;26.36;53.96;100920.03;4985571;28;19967;-65
2021/07/18 10:01:52;;;;;;;;;;;;;;;26.61;54.28;100918.00;4985245;28;19946;-66
2021/07/18 10:04:39;;;;;;;;;;;;;;;26.92;53.79;100910.38;4985218;28;20369;-66
2021/07/18 10:07:23;;;;;;;;;;;;;;;26.98;51.44;100904.81;4984731;28;19924;-65
2021/07/18 10:10:08;;;;;;;;;;;;;;;27.17;51.55;100909.16;4984875;28;20397;-66
2021/07/18 10:12:52;;;;;;;;;;;;;;;27.19;51.73;100904.25;4984979;28;20013;-66
2021/07/18 10:15:35;;;;;;;;;;;;;;;27.30;51.31;100897.97;4984878;28;20362;-65
2021/07/18 10:18:19;;;;;;;;;;;;;;;27.71;49.06;100889.59;4984945;28;19921;-67
2021/07/18 10:21:04;;;;;;;;;;;;;;;28.37;48.50;100884.50;4984870;28;20390;-67
2021/07/18 10:23:49;;;;;;;;;;;;;;;28.99;47.90;100877.97;4984504;28;19921;-66
2021/07/18 10:26:33;;;;;;;;;;;;;;;29.67;47.13;100875.72;4984882;28;19935;-67
2021/07/18 10:29:17;;;;;;;;;;;;;;;30.52;44.90;100869.38;4984818;28;19932;-67
2021/07/18 10:32:02;;;;;;;;;;;;;;;31.73;42.47;100876.75;4998158;28;19920;-65
2021/07/18 10:34:45;;;;;;;;;;;;;;;32.87;39.36;100879.09;4998826;28;19970;-67
2021/07/18 10:37:42;;;;;;;;;;;;;;;34.42;36.24;100874.06;4998388;28;20377;-67
2021/07/18 10:40:26;;;;;;;;;;;;;;;35.96;32.73;100871.06;4998382;28;20393;-67
2021/07/18 10:43:10;;;;;;;;;;;;;;;37.33;30.06;100859.28;4998167;28;19920;-67
2021/07/18 10:45:55;;;;;;;;;;;;;;;37.88;29.11;100865.75;5002029;28;19920;-67
2021/07/18 10:48:46;;;;;;;;;;;;;;;38.50;28.71;100859.41;4988385;28;19925;-67
2021/07/18 10:51:33;;;;;;;;;;;;;;;39.42;28.21;100858.47;5002047;28;19966;-67
2021/07/18 10:54:19;;;;;;;;;;;;;;;39.46;26.91;100868.69;5017182;28;19923;-67
2021/07/18 10:57:03;;;;;;;;;;;;;;;40.01;26.85;100867.13;5002529;28;19968;-67
2021/07/18 10:59:47;;;;;;;;;;;;;;;40.06;26.68;100857.75;5001886;28;19924;-67
2021/07/18 11:02:32;;;;;;;;;;;;;;;40.77;25.28;100863.66;5016862;28;20023;-67
2021/07/18 11:05:17;;;;;;;;;;;;;;;40.82;25.02;100857.09;5002246;28;19920;-67
2021/07/18 11:08:01;;;;;;;;;;;;;;;40.40;25.01;100855.88;5017029;28;19925;-67
2021/07/18 11:10:46;;;;;;;;;;;;;;;41.15;24.19;100847.84;5001932;28;19921;-67
2021/07/18 11:13:30;;;;;;;;;;;;;;;41.57;23.97;100846.94;5016589;28;19920;-67
2021/07/18 11:16:14;;;;;;;;;;;;;;;40.99;23.87;100846.72;5016515;28;20012;-66
2021/07/18 11:18:58;;;;;;;;;;;;;;;40.74;23.87;100846.72;5016695;28;19972;-66
2021/07/18 11:21:46;;;;;;;;;;;;;;;40.36;23.90;100843.72;5001494;28;20390;-66
2021/07/18 11:24:52;;;;;;;;;;;;;;;41.26;23.68;100828.72;5001610;28;20397;-67
2021/07/18 11:27:45;;;;;;;;;;;;;;;41.92;23.23;100840.00;5016659;28;20417;-67
2021/07/18 11:30:36;;;;;;;;;;;;;;;42.33;23.13;100828.09;5016791;28;19920;-67
2021/07/18 11:33:27;;;;;;;;;;;;;;;42.62;22.55;100825.22;5016727;28;19919;-67
2021/07/18 11:36:22;;;;;;;;;;;;;;;43.16;22.77;100830.47;5016133;28;20022;-67
2021/07/18 11:39:10;;;;;;;;;;;;;;;43.37;21.65;100820.00;5016399;28;20016;-67
2021/07/18 11:41:57;;;;;;;;;;;;;;;42.70;21.58;100827.97;5016005;28;19923;-67
2021/07/18 11:44:42;;;;;;;;;;;;;;;42.17;22.38;100825.06;5001614;28;19929;-66
2021/07/18 11:47:27;;;;;;;;;;;;;;;42.48;22.61;100825.50;5001314;28;19924;-67
2021/07/18 11:50:16;;;;;;;;;;;;;;;42.60;21.79;100819.97;4987575;28;19920;-67
2021/07/18 11:53:00;;;;;;;;;;;;;;;42.59;22.04;100821.13;5001811;28;19920;-67
2021/07/18 11:55:44;;;;;;;;;;;;;;;42.76;22.03;100815.34;5000624;28;20325;-65
2021/07/18 11:58:31;;;;;;;;;;;;;;;42.81;22.26;100813.16;5016089;28;19924;-67
2021/07/18 12:01:22;;;;;;;;;;;;;;;42.82;21.70;100808.38;5001331;28;19967;-66
2021/07/18 12:04:07;;;;;;;;;;;;;;;41.99;22.21;100815.09;5016779;28;19916;-68
2021/07/18 12:06:55;;;;;;;;;;;;;;;41.45;22.74;100807.63;5001393;28;19921;-67
2021/07/18 12:09:43;;;;;;;;;;;;;;;41.70;22.43;100809.50;4987841;28;19920;-66
2021/07/18 12:12:27;;;;;;;;;;;;;;;41.62;22.59;100807.53;5015790;28;19949;-67
2021/07/18 12:15:12;;;;;;;;;;;;;;;42.18;21.67;100803.47;5001024;28;19964;-67
2021/07/18 12:18:02;;;;;;;;;;;;;;;42.29;21.85;100793.47;5000756;28;20004;-66
2021/07/18 12:20:46;;;;;;;;;;;;;;;42.69;21.81;100803.88;5000608;28;20155;-66
2021/07/18 12:23:30;;;;;;;;;;;;;;;43.30;21.70;100794.53;4987059;28;20294;-66
2021/07/18 12:26:19;;;;;;;;;;;;;;;42.95;21.00;100796.03;4987350;28;20266;-66
2021/07/18 12:29:03;;;;;;;;;;;;;;;43.40;21.12;100792.06;5000503;28;19960;-66
2021/07/18 12:31:49;;;;;;;;;;;;;;;42.87;21.16;100788.50;5000462;28;20330;-66
2021/07/18 12:34:34;;;;;;;;;;;;;;;43.02;20.91;100787.88;5000368;28;20295;-65
2021/07/18 12:37:19;;;;;;;;;;;;;;;42.72;20.88;100787.16;5000487;28;20482;-66
2021/07/18 12:40:04;;;;;;;;;;;;;;;42.38;21.50;100780.22;5000604;28;19963;-67
2021/07/18 12:42:49;;;;;;;;;;;;;;;41.71;21.81;100785.94;5014936;28;19921;-66
2021/07/18 12:45:34;;;;;;;;;;;;;;;42.11;21.94;100789.16;4986361;28;19928;-67
2021/07/18 12:48:22;;;;;;;;;;;;;;;42.18;21.33;100778.25;5022870;23;19943;-68
2021/07/18 12:51:12;;;;;;;;;;;;;;;42.38;20.57;100775.44;5015847;28;19923;-66
2021/07/18 12:53:56;;;;;;;;;;;;;;;42.22;20.27;100766.00;5015004;28;19920;-66
2021/07/18 12:56:41;;;;;;;;;;;;;;;42.40;20.67;100766.66;5016460;28;19981;-66
2021/07/18 12:59:26;;;;;;;;;;;;;;;43.01;20.58;100769.41;4981225;28;20047;-65
2021/07/18 13:02:12;;;;;;;;;;;;;;;43.31;19.42;100763.28;4981847;28;20052;-66
2021/07/18 13:05:00;;;;;;;;;;;;;;;43.48;19.46;100756.63;4980816;28;20409;-65
2021/07/18 13:07:43;;;;;;;;;;;;;;;43.61;19.09;100752.66;4996048;28;20058;-69
2021/07/18 13:10:34;;;;;;;;;;;;;;;43.43;19.56;100759.69;4970550;28;19920;-67
2021/07/18 13:13:18;;;;;;;;;;;;;;;43.41;18.93;100751.59;4995294;28;19976;-67
2021/07/18 13:16:04;;;;;;;;;;;;;;;43.70;19.54;100751.38;4983749;28;20021;-67
2021/07/18 13:18:48;;;;;;;;;;;;;;;43.20;19.18;100744.44;4980830;28;20018;-67
2021/07/18 13:21:32;;;;;;;;;;;;;;;42.77;19.98;100738.44;4995146;28;19944;-67
2021/07/18 13:24:28;;;;;;;;;;;;;;;43.24;19.13;100749.00;4979783;28;19921;-67
2021/07/18 13:27:13;;;;;;;;;;;;;;;43.06;19.66;100736.34;4997948;28;19920;-68
2021/07/18 13:30:05;;;;;;;;;;;;;;;42.37;19.70;100736.53;4996066;28;19964;-67
2021/07/18 13:32:56;;;;;;;;;;;;;;;42.38;19.84;100739.00;4997810;28;19921;-68
2021/07/18 13:35:41;;;;;;;;;;;;;;;42.58;19.40;100734.53;4994418;28;19920;-70
2021/07/18 13:38:26;;;;;;;;;;;;;;;42.46;20.23;100729.66;4994394;28;19968;-70
2021/07/18 13:41:10;;;;;;;;;;;;;;;42.00;20.67;100727.09;4979403;28;19920;-69
2021/07/18 13:43:54;;;;;;;;;;;;;;;42.14;20.50;100724.84;4994498;28;20013;-69
2021/07/18 13:46:38;;;;;;;;;;;;;;;42.13;20.05;100720.41;4994203;28;20342;-70
2021/07/18 13:49:22;;;;;;;;;;;;;;;41.42;21.06;100724.31;4979445;28;19920;-70
2021/07/18 13:52:06;;;;;;;;;;;;;;;41.88;21.38;100713.03;4979512;28;19936;-70
2021/07/18 13:54:50;;;;;;;;;;;;;;;41.79;21.40;100711.44;4979726;28;20348;-70
2021/07/18 13:57:33;;;;;;;;;;;;;;;41.70;21.49;100703.09;4979515;28;19927;-70
2021/07/18 14:00:17;;;;;;;;;;;;;;;41.27;21.88;100702.47;4993968;28;19920;-70
2021/07/18 14:03:01;;;;;;;;;;;;;;;40.83;22.28;100694.56;4979163;28;19921;-69
2021/07/18 14:05:45;;;;;;;;;;;;;;;41.10;21.96;100698.94;4965865;28;20401;-70